createdAt,value
2018-09-04T00:02:13.795Z,99.90
2018-09-04T00:04:44.796Z,99.90
2018-09-04T00:07:15.810Z,99.90
2018-09-04T00:09:46.628Z,99.90
2018-09-04T00:12:17.534Z,99.90
2018-09-04T00:14:48.412Z,99.90
2018-09-04T00:17:19.238Z,99.90
2018-09-04T00:19:50.012Z,99.90
2018-09-04T00:22:20.866Z,99.90
2018-09-04T00:24:51.863Z,99.90
2018-09-04T00:27:22.584Z,99.90
2018-09-04T00:29:53.278Z,99.90
2018-09-04T00:32:24.160Z,99.90
2018-09-04T00:34:54.897Z,99.90
2018-09-04T00:37:25.740Z,99.90
2018-09-04T00:39:56.860Z,99.90
2018-09-04T00:42:27.594Z,99.90
2018-09-04T00:44:58.087Z,99.90
2018-09-04T00:47:28.576Z,99.90
2018-09-04T00:49:58.941Z,99.90
2018-09-04T00:52:29.318Z,99.90
2018-09-04T00:54:59.873Z,99.90
2018-09-04T00:57:30.417Z,99.90
2018-09-04T01:00:01.028Z,99.90
2018-09-04T01:02:31.445Z,99.90
2018-09-04T01:05:01.868Z,99.90
2018-09-04T01:07:32.265Z,99.90
2018-09-04T01:10:02.989Z,99.90
2018-09-04T01:12:33.376Z,99.90
2018-09-04T01:15:05.522Z,99.90
2018-09-04T01:17:35.857Z,99.90
2018-09-04T01:20:06.294Z,99.90
2018-09-04T01:22:36.730Z,99.90
2018-09-04T01:25:07.160Z,99.90
2018-09-04T01:27:37.581Z,99.90
2018-09-04T01:30:08.809Z,99.90
2018-09-04T01:32:39.207Z,99.90
2018-09-04T01:35:09.688Z,99.90
2018-09-04T01:37:40.240Z,99.90
2018-09-04T01:40:10.645Z,99.90
2018-09-04T01:42:41.067Z,99.90
2018-09-04T01:45:11.782Z,99.90
2018-09-04T01:47:42.243Z,99.90
2018-09-04T01:50:12.707Z,99.90
2018-09-04T01:52:43.148Z,99.90
2018-09-04T01:55:13.546Z,99.90
2018-09-04T01:57:43.967Z,99.90
2018-09-04T02:00:14.364Z,99.90
2018-09-04T02:02:44.814Z,99.90
2018-09-04T02:05:15.325Z,99.90
2018-09-04T02:07:45.764Z,99.90
2018-09-04T02:10:16.251Z,99.90
2018-09-04T02:12:46.735Z,99.90
2018-09-04T02:15:17.146Z,99.90
2018-09-04T02:17:47.920Z,99.90
2018-09-04T02:20:18.556Z,99.90
2018-09-04T02:22:49.098Z,99.90
2018-09-04T02:25:19.384Z,99.90
2018-09-04T02:27:49.862Z,99.90
2018-09-04T02:30:20.378Z,99.90
2018-09-04T02:32:50.716Z,99.90
2018-09-04T02:35:21.150Z,99.90
2018-09-04T02:37:51.693Z,99.90
2018-09-04T02:40:22.076Z,99.90
2018-09-04T02:42:52.532Z,99.90
2018-09-04T02:45:22.936Z,99.90
2018-09-04T02:47:53.460Z,99.90
2018-09-04T02:50:24.212Z,99.90
2018-09-04T02:52:54.544Z,99.90
2018-09-04T02:55:25.033Z,99.90
2018-09-04T02:57:55.654Z,99.90
2018-09-04T03:00:26.103Z,99.90
2018-09-04T03:02:56.479Z,99.90
2018-09-04T03:05:27.257Z,99.90
2018-09-04T03:07:57.673Z,99.90
2018-09-04T03:10:28.885Z,99.90
2018-09-04T03:12:59.355Z,99.90
2018-09-04T03:15:29.754Z,99.90
2018-09-04T03:18:00.054Z,99.90
2018-09-04T03:20:30.561Z,99.90
2018-09-04T03:23:01.490Z,99.90
2018-09-04T03:25:31.904Z,99.90
2018-09-04T03:28:03.035Z,99.90
2018-09-04T03:30:33.526Z,99.90
2018-09-04T03:33:04.953Z,99.90
2018-09-04T03:35:35.351Z,99.90
2018-09-04T03:38:06.147Z,99.90
2018-09-04T03:40:36.679Z,99.90
2018-09-04T03:43:07.834Z,99.90
2018-09-04T03:45:38.308Z,99.90
2018-09-04T03:48:10.266Z,99.90
2018-09-04T03:50:41.393Z,99.90
2018-09-04T03:53:12.875Z,99.90
2018-09-04T03:55:43.548Z,99.90
2018-09-04T03:58:14.250Z,99.90
2018-09-04T04:00:44.742Z,99.90
2018-09-04T04:03:15.219Z,99.90
2018-09-04T04:05:45.697Z,99.90
2018-09-04T04:08:16.476Z,99.90
2018-09-04T04:10:46.870Z,99.90
2018-09-04T04:13:17.480Z,99.90
2018-09-04T04:15:48.051Z,99.90
2018-09-04T04:18:18.407Z,99.90
2018-09-04T04:20:59.207Z,99.90
2018-09-04T04:23:30.940Z,99.90
2018-09-04T04:26:02.782Z,99.90
2018-09-04T04:28:33.364Z,99.90
2018-09-04T04:31:03.719Z,99.90
2018-09-04T04:33:34.133Z,99.90
2018-09-04T04:36:05.176Z,99.90
2018-09-04T04:38:35.587Z,99.90
2018-09-04T04:41:06.255Z,99.90
2018-09-04T04:43:36.828Z,99.90
2018-09-04T04:46:07.329Z,99.90
2018-09-04T04:48:37.769Z,99.90
2018-09-04T04:51:08.271Z,99.90
2018-09-04T04:53:38.786Z,99.90
2018-09-04T04:56:09.092Z,99.90
2018-09-04T04:58:39.639Z,99.90
2018-09-04T05:01:10.175Z,99.90
2018-09-04T05:03:40.880Z,99.90
2018-09-04T05:06:11.428Z,99.90
2018-09-04T05:08:41.942Z,99.90
2018-09-04T05:11:12.641Z,99.90
2018-09-04T05:13:43.281Z,99.90
2018-09-04T05:16:13.825Z,99.90
2018-09-04T05:18:44.578Z,99.90
2018-09-04T05:21:15.083Z,99.90
2018-09-04T05:23:45.531Z,99.90
2018-09-04T05:26:16.082Z,99.90
2018-09-04T05:28:46.556Z,99.90
2018-09-04T05:31:17.069Z,99.90
2018-09-04T05:33:48.338Z,99.90
2018-09-04T05:36:19.073Z,99.90
2018-09-04T05:38:49.619Z,99.90
2018-09-04T05:41:20.200Z,99.90
2018-09-04T05:43:54.853Z,99.90
2018-09-04T05:46:31.707Z,99.90
2018-09-04T05:49:02.775Z,99.90
2018-09-04T05:51:33.301Z,99.90
2018-09-04T05:54:03.925Z,99.90
2018-09-04T05:56:34.596Z,99.90
2018-09-04T05:59:05.720Z,99.90
2018-09-04T06:01:36.113Z,99.90
2018-09-04T06:04:07.009Z,99.90
2018-09-04T06:06:37.655Z,99.90
2018-09-04T06:09:08.654Z,99.90
2018-09-04T06:11:39.164Z,99.90
2018-09-04T06:14:09.550Z,99.90
2018-09-04T06:16:40.112Z,99.90
2018-09-04T06:19:10.919Z,99.90
2018-09-04T06:21:41.501Z,99.90
2018-09-04T06:24:12.001Z,99.90
2018-09-04T06:26:42.533Z,99.90
2018-09-04T06:29:12.979Z,99.90
2018-09-04T06:31:43.432Z,99.90
2018-09-04T06:34:14.242Z,99.90
2018-09-04T06:36:44.941Z,99.90
2018-09-04T06:39:15.675Z,99.90
2018-09-04T06:41:46.533Z,99.90
2018-09-04T06:44:16.999Z,99.90
2018-09-04T06:46:47.472Z,99.90
2018-09-04T06:49:18.525Z,99.90
2018-09-04T06:51:49.052Z,99.90
2018-09-04T06:54:20.844Z,99.90
2018-09-04T06:56:51.648Z,99.90
2018-09-04T06:59:22.201Z,99.90
2018-09-04T07:01:54.409Z,99.90
2018-09-04T07:04:25.043Z,99.90
2018-09-04T07:06:56.317Z,99.90
2018-09-04T07:09:26.839Z,99.90
2018-09-04T07:11:57.581Z,99.90
2018-09-04T07:14:28.608Z,99.90
2018-09-04T07:16:59.109Z,99.90
2018-09-04T07:19:29.650Z,99.90
2018-09-04T07:22:00.414Z,99.90
2018-09-04T07:24:32.130Z,99.90
2018-09-04T07:27:02.625Z,99.90
2018-09-04T07:29:33.581Z,99.90
2018-09-04T07:32:04.720Z,99.90
2018-09-04T07:34:36.701Z,99.90
2018-09-04T07:37:08.710Z,99.90
2018-09-04T07:39:39.471Z,99.90
2018-09-04T07:42:11.299Z,99.90
2018-09-04T07:44:42.735Z,99.90
2018-09-04T07:47:13.408Z,99.90
2018-09-04T07:49:44.186Z,99.90
2018-09-04T07:52:17.546Z,99.90
2018-09-04T07:54:49.612Z,99.90
2018-09-04T07:57:21.150Z,99.90
2018-09-04T07:59:51.793Z,99.90
2018-09-04T08:02:23.182Z,99.90
2018-09-04T08:04:54.772Z,99.90
2018-09-04T08:07:25.531Z,99.90
2018-09-04T08:09:56.241Z,99.90
2018-09-04T08:12:26.997Z,99.90
2018-09-04T08:14:58.347Z,99.90
2018-09-04T08:17:29.129Z,99.90
2018-09-04T08:19:59.765Z,99.90
2018-09-04T08:22:30.583Z,99.90
2018-09-04T08:25:01.282Z,99.90
2018-09-04T08:27:31.893Z,99.90
2018-09-04T08:30:02.287Z,99.90
2018-09-04T08:32:33.005Z,99.90
2018-09-04T08:35:03.769Z,99.90
2018-09-04T08:37:36.268Z,99.90
2018-09-04T08:40:06.926Z,99.90
2018-09-04T08:42:38.143Z,99.90
2018-09-04T08:45:08.892Z,99.90
2018-09-04T08:47:39.339Z,99.90
2018-09-04T08:50:11.133Z,99.90
2018-09-04T08:52:41.604Z,99.90
2018-09-04T08:55:12.407Z,99.90
2018-09-04T08:57:44.529Z,99.90
2018-09-04T09:00:16.231Z,99.90
2018-09-04T09:02:46.754Z,99.90
2018-09-04T09:05:18.671Z,99.90
2018-09-04T09:07:49.286Z,99.20
2018-09-04T09:10:20.352Z,98.60
2018-09-04T09:12:51.036Z,96.50
2018-09-04T09:15:21.636Z,94.10
2018-09-04T09:17:52.149Z,91.70
2018-09-04T09:20:22.781Z,91.80
2018-09-04T09:22:53.469Z,93.70
2018-09-04T09:25:24.447Z,94.20
2018-09-04T09:27:55.163Z,95.40
2018-09-04T09:30:25.641Z,95.10
2018-09-04T09:32:56.245Z,93.80
2018-09-04T09:35:27.652Z,92.40
2018-09-04T09:37:58.365Z,92.40
2018-09-04T09:40:29.085Z,90.40
2018-09-04T09:43:00.682Z,90.70
2018-09-04T09:45:31.364Z,88.60
2018-09-04T09:48:03.073Z,84.70
2018-09-04T09:50:35.215Z,84.70
2018-09-04T09:53:06.127Z,83.90
2018-09-04T09:55:36.935Z,81.30
2018-09-04T09:58:07.642Z,79.90
2018-09-04T10:00:43.146Z,77.90
2018-09-04T10:03:18.700Z,78.90
2018-09-04T10:05:49.330Z,80.90
2018-09-04T10:08:20.977Z,81.40
2018-09-04T10:10:51.611Z,82.10
2018-09-04T10:13:22.137Z,82.80
2018-09-04T10:15:52.710Z,79.90
2018-09-04T10:18:23.628Z,78.50
2018-09-04T10:20:54.906Z,76.50
2018-09-04T10:23:25.582Z,75.90
2018-09-04T10:25:56.175Z,75.60
2018-09-04T10:28:27.264Z,75.50
2018-09-04T10:30:57.906Z,73.30
2018-09-04T10:33:28.590Z,71.00
2018-09-04T10:35:59.065Z,70.30
2018-09-04T10:38:29.864Z,68.90
2018-09-04T10:41:03.800Z,71.10
2018-09-04T10:43:34.702Z,71.20
2018-09-04T10:46:07.300Z,69.90
2018-09-04T10:48:37.911Z,71.00
2018-09-04T10:51:09.276Z,71.50
2018-09-04T10:53:40.008Z,74.70
2018-09-04T10:56:10.749Z,77.60
2018-09-04T10:58:41.473Z,79.70
2018-09-04T11:01:12.191Z,80.80
2018-09-04T11:03:42.919Z,82.50
2018-09-04T11:06:13.626Z,83.00
2018-09-04T11:08:44.162Z,83.60
2018-09-04T11:11:14.692Z,84.20
2018-09-04T11:13:45.326Z,83.00
2018-09-04T11:16:15.877Z,82.40
2018-09-04T11:18:46.695Z,82.30
2018-09-04T11:21:17.359Z,81.40
2018-09-04T11:23:48.405Z,82.20
2018-09-04T11:26:19.111Z,82.30
2018-09-04T11:28:54.020Z,78.70
2018-09-04T11:31:24.534Z,76.80
2018-09-04T11:33:56.169Z,74.90
2018-09-04T11:36:27.633Z,75.10
2018-09-04T11:38:58.098Z,73.60
2018-09-04T11:41:28.982Z,76.10
2018-09-04T11:43:59.591Z,72.90
2018-09-04T11:46:30.845Z,73.70
2018-09-04T11:49:01.527Z,74.40
2018-09-04T11:51:32.282Z,74.40
2018-09-04T11:54:03.833Z,77.50
2018-09-04T11:56:38.578Z,77.30
2018-09-04T11:59:10.269Z,78.90
2018-09-04T12:01:44.315Z,83.80
2018-09-04T12:04:15.887Z,88.10
2018-09-04T12:06:46.679Z,90.50
2018-09-04T12:09:18.469Z,91.00
2018-09-04T12:11:55.275Z,91.20
2018-09-04T12:14:31.718Z,91.60
2018-09-04T12:17:02.213Z,91.60
2018-09-04T12:20:02.400Z,91.70
2018-09-04T12:22:33.910Z,91.60
2018-09-04T12:25:04.960Z,91.90
2018-09-04T12:27:36.640Z,92.70
2018-09-04T12:30:07.967Z,94.40
2018-09-04T12:32:38.587Z,94.80
2018-09-04T12:35:09.137Z,96.50
2018-09-04T12:37:39.803Z,99.90
2018-09-04T12:40:13.419Z,99.90
2018-09-04T12:42:44.234Z,99.90
2018-09-04T12:45:15.504Z,99.90
2018-09-04T12:47:47.321Z,99.90
2018-09-04T12:50:19.424Z,99.90
2018-09-04T12:52:50.259Z,99.90
2018-09-04T12:55:21.188Z,99.90
2018-09-04T12:57:51.968Z,99.90
2018-09-04T13:00:22.541Z,99.90
2018-09-04T13:02:53.335Z,99.90
2018-09-04T13:05:25.302Z,99.90
2018-09-04T13:07:56.021Z,99.90
2018-09-04T13:10:28.693Z,99.90
2018-09-04T13:13:00.463Z,99.90
2018-09-04T13:15:32.653Z,99.90
2018-09-04T13:18:04.111Z,99.90
2018-09-04T13:20:36.546Z,99.90
2018-09-04T13:23:08.219Z,99.90
2018-09-04T13:25:38.814Z,99.90
2018-09-04T13:28:10.689Z,99.90
2018-09-04T13:30:42.129Z,99.90
2018-09-04T13:33:12.834Z,99.90
2018-09-04T13:35:43.537Z,99.90
2018-09-04T13:38:14.236Z,99.90
2018-09-04T13:40:44.964Z,99.90
2018-09-04T13:43:16.299Z,99.90
2018-09-04T13:45:47.545Z,99.90
2018-09-04T13:48:18.562Z,99.90
2018-09-04T13:50:49.284Z,99.90
2018-09-04T13:53:20.357Z,99.90
2018-09-04T13:55:52.562Z,99.90
2018-09-04T13:58:25.591Z,99.90
2018-09-04T14:01:07.704Z,99.90
2018-09-04T14:03:42.297Z,99.90
2018-09-04T14:06:15.878Z,99.90
2018-09-04T14:08:46.713Z,99.90
2018-09-04T14:11:17.970Z,99.90
2018-09-04T14:13:50.010Z,99.90
2018-09-04T14:16:24.748Z,99.90
2018-09-04T14:19:01.737Z,99.90
2018-09-04T14:21:37.137Z,99.90
2018-09-04T14:24:13.655Z,99.90
2018-09-04T14:26:44.971Z,99.90
2018-09-04T14:29:53.165Z,99.90
2018-09-04T14:31:54.703Z,99.90
2018-09-04T14:34:30.843Z,99.90
2018-09-04T14:37:01.968Z,99.90
2018-09-04T14:39:33.900Z,99.90
2018-09-04T14:42:05.580Z,99.90
2018-09-04T14:44:38.537Z,99.90
2018-09-04T14:47:10.741Z,99.90
2018-09-04T14:49:46.666Z,99.90
2018-09-04T14:52:18.081Z,99.90
2018-09-04T14:54:50.143Z,99.90
2018-09-04T14:57:20.903Z,99.90
2018-09-04T14:59:53.617Z,99.90
2018-09-04T15:02:24.968Z,99.90
2018-09-04T15:04:56.408Z,99.90
2018-09-04T15:07:27.590Z,99.90
2018-09-04T15:09:58.432Z,99.90
2018-09-04T15:12:30.181Z,99.90
2018-09-04T15:15:03.034Z,99.90
2018-09-04T15:17:34.253Z,99.90
2018-09-04T15:20:19.384Z,99.90
2018-09-04T15:22:49.893Z,99.90
2018-09-04T15:25:22.495Z,99.90
2018-09-04T15:27:52.975Z,99.90
2018-09-04T15:30:25.697Z,99.90
2018-09-04T15:32:57.084Z,99.90
2018-09-04T15:35:27.836Z,99.90
2018-09-04T15:37:59.153Z,99.90
2018-09-04T15:40:30.458Z,99.90
2018-09-04T15:43:03.495Z,99.90
2018-09-04T15:45:35.072Z,99.90
2018-09-04T15:48:08.365Z,99.90
2018-09-04T15:50:42.488Z,99.90
2018-09-04T15:53:15.579Z,99.90
2018-09-04T15:55:49.462Z,99.90
2018-09-04T15:58:21.172Z,99.90
2018-09-04T16:00:53.207Z,99.90
2018-09-04T16:03:23.907Z,99.90
2018-09-04T16:05:55.986Z,99.90
2018-09-04T16:08:27.060Z,99.90
2018-09-04T16:10:58.497Z,99.90
2018-09-04T16:13:35.170Z,99.90
2018-09-04T16:16:09.326Z,99.90
2018-09-04T16:18:41.963Z,99.90
2018-09-04T16:21:20.573Z,99.90
2018-09-04T16:24:00.259Z,99.90
2018-09-04T16:26:33.576Z,99.90
2018-09-04T16:29:05.889Z,99.90
2018-09-04T16:31:39.362Z,99.90
2018-09-04T16:34:11.146Z,99.90
2018-09-04T16:36:44.969Z,99.90
2018-09-04T16:39:16.812Z,99.90
2018-09-04T16:41:50.919Z,99.90
2018-09-04T16:44:21.937Z,99.90
2018-09-04T16:46:54.301Z,99.90
2018-09-04T16:49:27.812Z,99.90
2018-09-04T16:52:01.082Z,99.90
2018-09-04T16:54:33.089Z,99.90
2018-09-04T16:57:06.246Z,99.90
2018-09-04T16:59:39.312Z,99.90
2018-09-04T17:02:11.698Z,99.90
2018-09-04T17:04:43.994Z,99.90
2018-09-04T17:07:55.033Z,99.90
2018-09-04T17:10:26.377Z,99.90
2018-09-04T17:12:57.692Z,99.90
2018-09-04T17:15:28.605Z,99.90
2018-09-04T17:17:59.890Z,99.90
2018-09-04T17:20:31.341Z,99.90
2018-09-04T17:23:02.730Z,99.90
2018-09-04T17:25:33.695Z,99.90
2018-09-04T17:28:04.549Z,99.90
2018-09-04T17:30:35.788Z,99.90
2018-09-04T17:33:07.613Z,99.90
2018-09-04T17:35:40.034Z,99.90
2018-09-04T17:38:11.190Z,99.90
2018-09-04T17:40:42.639Z,99.90
2018-09-04T17:43:14.274Z,99.90
2018-09-04T17:45:45.994Z,99.90
2018-09-04T17:48:18.984Z,99.90
2018-09-04T17:50:50.856Z,99.90
2018-09-04T17:53:23.627Z,99.90
2018-09-04T17:55:55.701Z,99.90
2018-09-04T17:58:27.593Z,99.90
2018-09-04T18:00:59.305Z,99.90
2018-09-04T18:03:31.561Z,99.90
2018-09-04T18:06:03.070Z,99.90
2018-09-04T18:08:34.490Z,99.90
2018-09-04T18:11:05.975Z,99.90
2018-09-04T18:13:38.354Z,99.90
2018-09-04T18:16:10.009Z,99.90
2018-09-04T18:18:41.719Z,99.90
2018-09-04T18:21:13.315Z,99.90
2018-09-04T18:23:45.264Z,99.90
2018-09-04T18:26:17.198Z,99.90
2018-09-04T18:28:49.042Z,99.90
2018-09-04T18:31:20.878Z,99.90
2018-09-04T18:33:53.119Z,99.90
2018-09-04T18:36:27.640Z,99.90
2018-09-04T18:38:59.584Z,99.90
2018-09-04T18:41:31.561Z,99.90
2018-09-04T18:44:03.450Z,99.90
2018-09-04T18:46:36.158Z,99.90
2018-09-04T18:49:08.927Z,99.90
2018-09-04T18:51:41.152Z,99.90
2018-09-04T18:54:14.977Z,99.90
2018-09-04T18:56:47.223Z,99.90
2018-09-04T18:59:20.371Z,99.90
2018-09-04T19:01:51.987Z,99.90
2018-09-04T19:04:24.498Z,99.90
2018-09-04T19:06:57.113Z,99.90
2018-09-04T19:09:30.561Z,99.90
2018-09-04T19:12:02.730Z,99.90
2018-09-04T19:14:36.567Z,99.90
2018-09-04T19:17:09.418Z,99.90
2018-09-04T19:19:43.427Z,99.90
2018-09-04T19:22:15.858Z,99.90
2018-09-04T19:24:49.150Z,99.90
2018-09-04T19:27:25.572Z,99.90
2018-09-04T19:29:57.622Z,99.90
2018-09-04T19:32:30.760Z,99.90
2018-09-04T19:35:05.205Z,99.90
2018-09-04T19:37:37.559Z,99.90
2018-09-04T19:40:11.442Z,99.90
2018-09-04T19:42:46.423Z,99.90
2018-09-04T19:45:24.173Z,99.90
2018-09-04T19:47:58.004Z,99.90
2018-09-04T19:50:35.280Z,99.90
2018-09-04T19:53:07.919Z,99.90
2018-09-04T19:55:42.053Z,99.90
2018-09-04T19:58:14.985Z,99.90
2018-09-04T20:00:48.510Z,99.90
2018-09-04T20:03:22.334Z,99.90
2018-09-04T20:05:55.563Z,99.90
2018-09-04T20:08:29.112Z,99.90
2018-09-04T20:11:02.215Z,99.90
2018-09-04T20:13:34.145Z,99.90
2018-09-04T20:16:06.281Z,99.90
2018-09-04T20:18:39.900Z,99.90
2018-09-04T20:21:14.669Z,99.90
2018-09-04T20:23:47.239Z,99.90
2018-09-04T20:26:19.463Z,99.90
2018-09-04T20:28:52.993Z,99.90
2018-09-04T20:31:24.859Z,99.90
2018-09-04T20:33:59.169Z,99.90
2018-09-04T20:36:30.820Z,99.90
2018-09-04T20:39:02.599Z,99.90
2018-09-04T20:41:36.518Z,99.90
2018-09-04T20:44:10.015Z,99.90
2018-09-04T20:46:42.320Z,99.90
2018-09-04T20:49:14.281Z,99.90
2018-09-04T20:51:46.308Z,99.90
2018-09-04T20:54:17.838Z,99.90
2018-09-04T20:57:00.509Z,99.90
2018-09-04T20:59:47.752Z,99.90
2018-09-04T21:02:34.760Z,99.90
2018-09-04T21:05:21.976Z,99.90
2018-09-04T21:08:23.395Z,99.90
2018-09-04T21:10:55.784Z,99.90
2018-09-04T21:13:28.829Z,99.90
2018-09-04T21:16:01.190Z,99.90
2018-09-04T21:18:31.905Z,99.90
2018-09-04T21:21:03.626Z,99.90
2018-09-04T21:23:34.570Z,99.90
2018-09-04T21:26:05.313Z,99.90
2018-09-04T21:28:36.912Z,99.90
2018-09-04T21:31:07.840Z,99.90
2018-09-04T21:33:38.385Z,99.90
2018-09-04T21:36:09.268Z,99.90
2018-09-04T21:38:39.968Z,99.90
2018-09-04T21:41:17.098Z,99.90
2018-09-04T21:43:48.212Z,99.90
2018-09-04T21:46:19.802Z,99.90
2018-09-04T21:48:51.026Z,99.90
2018-09-04T21:51:23.390Z,99.90
2018-09-04T21:53:54.752Z,99.90
2018-09-04T21:56:26.476Z,99.90
2018-09-04T21:58:59.226Z,99.90
2018-09-04T22:01:31.903Z,99.90
2018-09-04T22:04:02.682Z,99.90
2018-09-04T22:06:34.099Z,99.90
2018-09-04T22:09:06.522Z,99.90
2018-09-04T22:11:38.816Z,99.90
2018-09-04T22:14:10.479Z,99.90
2018-09-04T22:16:41.768Z,99.90
2018-09-04T22:19:13.857Z,99.90
2018-09-04T22:21:47.109Z,99.90
2018-09-04T22:24:18.735Z,99.90
2018-09-04T22:26:49.529Z,99.90
2018-09-04T22:29:20.996Z,99.90
2018-09-04T22:31:52.102Z,99.90
2018-09-04T22:34:22.778Z,99.90
2018-09-04T22:36:54.292Z,99.90
2018-09-04T22:39:25.699Z,99.90
2018-09-04T22:41:57.852Z,99.90
2018-09-04T22:44:29.325Z,99.90
2018-09-04T22:47:00.835Z,99.90
2018-09-04T22:49:32.617Z,99.90
2018-09-04T22:52:04.219Z,99.90
2018-09-04T22:54:37.287Z,99.90
2018-09-04T22:57:09.808Z,99.90
2018-09-04T22:59:41.550Z,99.90
2018-09-04T23:02:13.121Z,99.90
2018-09-04T23:04:45.935Z,99.90
2018-09-04T23:07:19.098Z,99.90
2018-09-04T23:09:51.543Z,99.90
2018-09-04T23:12:22.154Z,99.90
2018-09-04T23:14:54.587Z,99.90
2018-09-04T23:17:26.143Z,99.90
2018-09-04T23:19:57.564Z,99.90
2018-09-04T23:22:29.283Z,99.90
2018-09-04T23:24:59.945Z,99.90
2018-09-04T23:27:31.337Z,99.90
2018-09-04T23:30:02.097Z,99.90
2018-09-04T23:32:38.445Z,99.90
2018-09-04T23:35:09.626Z,99.90
2018-09-04T23:37:41.047Z,99.90
2018-09-04T23:40:12.083Z,99.90
2018-09-04T23:42:43.270Z,99.90
2018-09-04T23:45:15.661Z,99.90
2018-09-04T23:47:47.114Z,99.90
2018-09-04T23:50:18.242Z,99.90
2018-09-04T23:52:49.670Z,99.90
2018-09-04T23:55:22.177Z,99.90
2018-09-04T23:57:53.940Z,99.90
